Time;durP1;ratioP1;P1;durP2;ratioP2;P2;SDS_P1;SDS_P2;PMS_P1;PMS_P2;Temp;Humidity;BMP_temperature;BMP_pressure;BME280_temperature;BME280_humidity;BME280_pressure;Samples;Min_cycle;Max_cycle;Signal;HPM_P1;HPM_P2
2022/09/04 00:00:11;;;;;;;;;;;22.60;64.90;;;;;;6234944;28;20034;-87
2022/09/04 00:03:44;;;;;;;3.03;1.80;;;22.60;64.90;;;;;;6236929;28;19921;-87
2022/09/04 00:07:10;;;;;;;4.70;1.92;;;22.60;64.80;;;;;;6256632;28;20140;-87
2022/09/04 00:10:29;;;;;;;5.53;1.80;;;22.60;64.80;;;;;;6239667;28;20446;-86
2022/09/04 00:13:38;;;;;;;3.35;1.70;;;22.60;64.80;;;;;;6263383;28;20417;-87
2022/09/04 00:17:00;;;;;;;7.57;1.70;;;22.50;65.00;;;;;;6219541;28;20541;-87
2022/09/04 00:20:11;;;;;;;3.25;1.48;;;22.50;65.50;;;;;;6220706;28;20048;-86
2022/09/04 00:24:01;;;;;;;4.93;1.90;;;22.40;65.70;;;;;;6249575;28;20029;-86
2022/09/04 00:27:07;;;;;;;2.97;1.65;;;22.50;66.10;;;;;;6213368;28;20107;-87
2022/09/04 00:30:13;;;;;;;4.38;1.65;;;22.50;66.80;;;;;;6240823;28;20050;-87
2022/09/04 00:33:50;;;;;;;5.15;1.67;;;22.50;65.90;;;;;;6263201;28;20033;-86
2022/09/04 00:36:54;;;;;;;1.60;1.02;;;22.50;65.90;;;;;;6226014;28;20041;-86
2022/09/04 00:40:16;;;;;;;5.03;1.38;;;22.50;65.70;;;;;;6231607;28;20378;-87
2022/09/04 00:43:22;;;;;;;5.32;1.83;;;22.40;65.70;;;;;;6245786;28;20052;-86
2022/09/04 00:46:50;;;;;;;3.17;1.67;;;22.40;65.70;;;;;;6235993;28;20129;-86
2022/09/04 00:50:19;;;;;;;2.92;1.27;;;22.40;65.80;;;;;;6240392;28;20041;-87
2022/09/04 00:53:50;;;;;;;2.20;1.50;;;22.50;65.70;;;;;;6244153;28;20042;-86
2022/09/04 00:57:12;;;;;;;3.40;1.50;;;22.50;65.50;;;;;;6232251;28;20374;-86
2022/09/04 01:00:19;;;;;;;1.83;1.40;;;22.50;65.40;;;;;;6235500;28;20037;-87
2022/09/04 01:04:00;;;;;;;4.88;2.13;;;22.60;65.40;;;;;;6231747;28;20065;-87
2022/09/04 01:07:15;;;;;;;3.63;1.60;;;22.50;65.50;;;;;;6159730;28;20045;-87
2022/09/04 01:10:34;;;;;;;3.53;1.42;;;22.50;66.50;;;;;;6184274;28;20461;-86
2022/09/04 01:13:42;;;;;;;3.80;1.70;;;22.50;65.90;;;;;;6225710;28;20338;-86
2022/09/04 01:16:54;;;;;;;;;;;22.40;66.00;;;;;;6220526;28;20044;-86
2022/09/04 01:20:36;;;;;;;5.85;1.77;;;22.50;66.10;;;;;;6226167;28;20372;-87
2022/09/04 01:24:06;;;;;;;2.85;1.77;;;22.40;66.30;;;;;;6221419;28;20355;-87
2022/09/04 01:27:22;;;;;;;6.63;1.85;;;22.40;66.60;;;;;;6188330;28;20030;-87
2022/09/04 01:30:24;;;;;;;6.57;2.00;;;22.40;66.90;;;;;;6243056;28;20030;-87
2022/09/04 01:33:47;;;;;;;6.18;1.88;;;22.30;66.80;;;;;;6244414;28;20060;-88
2022/09/04 01:37:18;;;;;;;3.08;1.67;;;22.30;66.90;;;;;;6224242;28;20490;-87
2022/09/04 01:40:39;;;;;;;4.45;2.17;;;22.30;67.10;;;;;;6221081;28;20458;-87
2022/09/04 01:43:41;;;;;;;4.68;2.30;;;22.30;67.20;;;;;;6251809;28;20043;-87
2022/09/04 01:46:57;;;;;;;3.50;1.83;;;22.20;67.30;;;;;;6250308;28;20410;-88
2022/09/04 01:50:15;;;;;;;3.78;1.88;;;22.20;67.60;;;;;;6275818;28;20483;-88
2022/09/04 01:53:24;;;;;;;5.22;2.00;;;22.20;67.70;;;;;;6291969;28;20048;-87
2022/09/04 01:56:39;;;;;;;3.08;2.10;;;22.10;67.80;;;;;;6276988;28;20354;-87
2022/09/04 02:00:09;;;;;;;5.93;1.92;;;22.10;67.80;;;;;;6309501;28;20041;-87
2022/09/04 02:03:22;;;;;;;7.70;2.83;;;22.20;68.00;;;;;;6270711;28;20040;-87
2022/09/04 02:06:23;;;;;;;4.55;2.45;;;22.20;67.90;;;;;;6280794;28;20106;-87
2022/09/04 02:09:56;;;;;;;5.72;2.55;;;22.20;67.80;;;;;;6289934;28;20033;-87
2022/09/04 02:13:28;;;;;;;6.47;2.20;;;22.20;67.80;;;;;;6314972;28;20116;-87
2022/09/04 02:16:59;;;;;;;3.13;2.13;;;22.20;67.70;;;;;;6295730;28;20059;-86
2022/09/04 02:20:15;;;;;;;6.43;2.70;;;22.20;67.70;;;;;;6271269;28;20055;-87
2022/09/04 02:23:42;;;;;;;3.75;2.20;;;22.20;67.50;;;;;;6276227;28;20110;-86
2022/09/04 02:27:10;;;;;;;3.08;1.88;;;22.20;67.40;;;;;;6268926;28;20421;-87
2022/09/04 02:30:15;;;;;;;3.63;1.90;;;22.20;67.30;;;;;;6270111;28;20060;-87
2022/09/04 02:33:24;;;;;;;4.30;1.95;;;22.20;67.30;;;;;;6292059;28;20101;-86
2022/09/04 02:36:47;;;;;;;4.65;2.20;;;22.20;67.50;;;;;;6283987;28;20040;-87
2022/09/04 02:40:02;;;;;;;5.72;2.40;;;22.20;67.60;;;;;;6255088;28;20041;-87
2022/09/04 02:43:38;;;;;;;3.03;1.77;;;22.20;67.60;;;;;;6274634;28;20409;-86
2022/09/04 02:47:16;;;;;;;5.05;2.25;;;22.10;67.90;;;;;;6291737;28;20150;-86
2022/09/04 02:50:52;;;;;;;4.82;2.30;;;22.10;68.10;;;;;;6283204;28;20055;-87
2022/09/04 02:54:27;;;;;;;5.70;2.20;;;22.10;68.20;;;;;;6264843;28;20103;-87
2022/09/04 02:57:40;;;;;;;4.47;2.35;;;22.00;68.40;;;;;;6288699;28;20035;-87
2022/09/04 03:01:04;;;;;;;8.38;3.00;;;22.10;68.50;;;;;;6260619;28;20041;-87
2022/09/04 03:04:30;;;;;;;4.85;2.50;;;22.00;68.50;;;;;;6306245;28;20033;-88
2022/09/04 03:08:09;;;;;;;6.93;2.53;;;22.00;68.60;;;;;;6266254;28;20030;-87
2022/09/04 03:11:18;;;;;;;3.15;1.85;;;21.90;68.60;;;;;;6252080;28;20056;-86
2022/09/04 03:14:26;;;;;;;3.88;1.92;;;22.00;68.60;;;;;;6269602;28;20045;-87
2022/09/04 03:17:39;;;;;;;5.45;1.73;;;22.00;68.50;;;;;;6282977;28;20100;-87
2022/09/04 03:20:50;;;;;;;10.85;2.08;;;22.00;68.40;;;;;;6271828;28;20116;-87
2022/09/04 03:23:53;;;;;;;3.42;1.60;;;22.00;68.20;;;;;;6261665;28;20045;-87
2022/09/04 03:27:01;;;;;;;4.88;1.67;;;22.00;68.00;;;;;;6284818;28;20110;-87
2022/09/04 03:30:07;;;;;;;3.50;1.80;;;22.00;67.90;;;;;;6236102;28;20465;-87
2022/09/04 03:33:34;;;;;;;5.18;1.67;;;22.00;67.80;;;;;;6267935;28;20095;-86
2022/09/04 03:36:47;;;;;;;11.55;1.73;;;22.00;67.70;;;;;;6278014;28;20047;-87
2022/09/04 03:39:52;;;;;;;2.90;1.38;;;22.00;67.60;;;;;;6273429;28;20522;-86
2022/09/04 03:43:18;;;;;;;2.58;1.70;;;22.00;67.60;;;;;;6287692;28;20037;-86
2022/09/04 03:46:36;;;;;;;2.45;1.50;;;22.00;67.80;;;;;;6291672;28;20041;-86
2022/09/04 03:49:56;;;;;;;3.58;1.67;;;21.90;67.80;;;;;;6310151;28;20048;-87
2022/09/04 03:53:04;;;;;;;3.85;1.60;;;21.90;67.70;;;;;;6266080;28;20033;-87
2022/09/04 03:56:14;;;;;;;5.40;1.70;;;21.90;67.80;;;;;;6298220;28;20040;-87
2022/09/04 03:59:45;;;;;;;2.88;1.55;;;21.90;67.80;;;;;;6283849;28;20033;-87
2022/09/04 04:02:46;;;;;;;7.15;1.95;;;21.90;67.90;;;;;;6300116;28;20043;-87
2022/09/04 04:06:04;;;;;;;5.78;2.15;;;21.90;67.80;;;;;;6303965;28;20371;-88
2022/09/04 04:09:10;;;;;;;5.47;1.70;;;21.90;67.90;;;;;;6266711;28;20029;-87
2022/09/04 04:12:25;;;;;;;6.47;2.20;;;21.90;67.90;;;;;;6263626;28;20120;-87
2022/09/04 04:15:54;;;;;;;2.13;1.60;;;21.90;68.00;;;;;;6295143;28;20048;-87
2022/09/04 04:19:23;;;;;;;2.90;1.67;;;21.90;67.90;;;;;;6249172;28;20129;-87
2022/09/04 04:22:46;;;;;;;4.13;2.28;;;21.80;68.00;;;;;;6266238;28;20350;-88
2022/09/04 04:25:59;;;;;;;8.27;2.22;;;21.80;68.00;;;;;;6267256;28;20037;-87
2022/09/04 04:29:39;;;;;;;5.03;2.05;;;21.80;68.90;;;;;;6280316;28;20067;-87
2022/09/04 04:32:58;;;;;;;;;;;21.80;68.20;;;;;;6257088;28;20032;-87
2022/09/04 04:36:05;;;;;;;2.63;1.83;;;21.90;68.10;;;;;;6271393;28;20023;-87
2022/09/04 04:39:24;;;;;;;4.53;1.88;;;21.90;68.00;;;;;;6254224;28;20052;-87
2022/09/04 04:42:33;;;;;;;4.55;2.30;;;21.80;68.10;;;;;;6264342;28;20446;-88
2022/09/04 04:45:50;;;;;;;6.18;2.05;;;21.80;68.20;;;;;;6279914;28;20041;-86
2022/09/04 04:49:28;;;;;;;6.82;2.30;;;21.80;68.20;;;;;;6256960;28;20036;-87
2022/09/04 04:53:34;;;;;;;4.65;2.03;;;21.80;68.40;;;;;;6275164;28;20044;-87
2022/09/04 04:57:01;;;;;;;2.30;1.80;;;21.80;68.50;;;;;;6255731;28;20021;-87
2022/09/04 05:00:18;;;;;;;6.00;1.88;;;21.80;68.40;;;;;;6284281;28;20025;-86
2022/09/04 05:04:01;;;;;;;3.65;2.30;;;21.80;68.40;;;;;;6280615;28;20045;-86
2022/09/04 05:07:26;;;;;;;4.53;2.67;;;21.70;68.50;;;;;;6242354;28;20034;-88
2022/09/04 05:11:03;;;;;;;19.17;2.92;;;21.80;68.50;;;;;;6217587;28;20388;-87
2022/09/04 05:14:22;;;;;;;10.90;2.90;;;21.80;68.60;;;;;;6207244;28;20044;-87
2022/09/04 05:17:32;;;;;;;14.23;3.00;;;21.70;68.50;;;;;;6213586;28;20053;-87
2022/09/04 05:20:49;;;;;;;6.57;3.33;;;21.80;68.50;;;;;;6223821;28;20033;-87
2022/09/04 05:24:11;;;;;;;8.88;3.03;;;21.80;68.50;;;;;;6225509;28;20095;-87
2022/09/04 05:27:38;;;;;;;5.25;2.40;;;21.80;68.60;;;;;;6169987;28;20367;-87
2022/09/04 05:30:53;;;;;;;5.68;2.42;;;21.80;68.60;;;;;;6186642;28;20037;-86
2022/09/04 05:34:17;;;;;;;3.83;2.22;;;21.80;68.60;;;;;;6167383;28;20043;-86
2022/09/04 05:37:37;;;;;;;6.65;2.25;;;21.90;68.60;;;;;;6208934;28;20108;-86
2022/09/04 05:40:57;;;;;;;13.57;2.20;;;21.90;68.40;;;;;;6199929;28;20480;-86
2022/09/04 05:44:17;;;;;;;3.88;2.00;;;22.00;68.30;;;;;;6227058;28;20504;-87
2022/09/04 05:47:40;;;;;;;8.95;1.88;;;22.00;68.10;;;;;;6244903;28;20056;-86
2022/09/04 05:50:57;;;;;;;10.77;3.83;;;22.10;68.00;;;;;;6269054;28;20047;-87
2022/09/04 05:54:37;;;;;;;8.02;2.90;;;22.10;67.60;;;;;;6253174;28;20477;-88
2022/09/04 05:58:06;;;;;;;6.25;3.30;;;22.10;67.60;;;;;;6236416;28;20033;-87
2022/09/04 06:01:45;;;;;;;6.43;3.33;;;22.10;67.40;;;;;;6256988;28;20049;-86
2022/09/04 06:05:12;;;;;;;6.82;3.38;;;22.00;67.30;;;;;;6289744;28;20033;-87
2022/09/04 06:08:57;;;;;;;3.78;2.60;;;22.00;67.40;;;;;;6249017;28;20036;-88
2022/09/04 06:12:25;;;;;;;3.42;2.25;;;22.00;67.60;;;;;;6217473;28;20052;-87
2022/09/04 06:15:56;;;;;;;9.80;2.90;;;22.00;67.60;;;;;;6185438;28;20053;-87
2022/09/04 06:19:18;;;;;;;14.60;3.85;;;22.00;67.60;;;;;;6231742;28;20070;-87
2022/09/04 06:23:01;;;;;;;5.13;3.08;;;22.00;67.70;;;;;;6250180;28;20099;-87
2022/09/04 06:26:52;;;;;;;7.18;3.33;;;22.00;67.60;;;;;;6248906;28;20116;-87
2022/09/04 06:30:02;;;;;;;3.58;2.50;;;22.00;67.50;;;;;;6244138;28;20037;-87
2022/09/04 06:34:00;;;;;;;9.38;2.33;;;22.00;67.50;;;;;;6260261;28;20045;-88
2022/09/04 06:37:24;;;;;;;5.75;2.63;;;22.00;67.80;;;;;;6253294;28;20381;-87
2022/09/04 06:40:41;;;;;;;5.50;2.10;;;22.00;67.90;;;;;;6284370;28;20029;-86
2022/09/04 06:44:03;;;;;;;5.63;2.30;;;22.10;68.00;;;;;;6245232;28;20097;-87
2022/09/04 06:47:15;;;;;;;8.02;2.33;;;22.10;67.90;;;;;;6266176;28;20029;-86
2022/09/04 06:50:34;;;;;;;3.38;2.05;;;22.30;67.90;;;;;;6273307;28;20037;-86
2022/09/04 06:53:42;;;;;;;;;;;22.20;67.70;;;;;;6269594;28;20361;-85
2022/09/04 06:57:01;;;;;;;7.40;3.03;;;22.30;67.50;;;;;;6271493;28;20371;-86
2022/09/04 07:00:10;;;;;;;4.72;2.50;;;22.30;67.20;;;;;;6285750;28;20066;-84
2022/09/04 07:03:26;;;;;;;8.10;2.47;;;22.40;67.20;;;;;;6284882;28;20032;-82
2022/09/04 07:06:50;;;;;;;5.38;2.53;;;22.40;67.10;;;;;;6282016;28;20040;-82
2022/09/04 07:10:01;;;;;;;6.25;2.75;;;22.50;67.00;;;;;;6254580;28;20038;-83
2022/09/04 07:13:25;;;;;;;5.35;2.53;;;22.50;66.70;;;;;;6257359;28;20074;-83
2022/09/04 07:16:36;;;;;;;6.13;3.20;;;22.60;66.70;;;;;;6200967;28;20212;-86
2022/09/04 07:20:08;;;;;;;12.80;3.25;;;22.70;66.50;;;;;;6197230;28;20092;-84
2022/09/04 07:23:35;;;;;;;8.02;3.47;;;22.80;66.20;;;;;;6202026;28;20124;-84
2022/09/04 07:26:50;;;;;;;5.90;3.03;;;22.80;65.60;;;;;;6205802;28;20521;-85
2022/09/04 07:30:09;;;;;;;6.57;2.30;;;22.90;65.50;;;;;;6197234;28;20584;-79
2022/09/04 07:33:27;;;;;;;10.25;2.83;;;23.00;65.30;;;;;;6190398;28;20157;-84
2022/09/04 07:36:53;;;;;;;3.83;2.40;;;23.10;65.10;;;;;;6222655;28;20041;-83
2022/09/04 07:40:20;;;;;;;6.25;2.72;;;23.30;64.50;;;;;;6240585;28;20041;-83
2022/09/04 07:43:29;;;;;;;8.57;2.75;;;23.30;64.10;;;;;;6230521;28;20099;-83
2022/09/04 07:46:56;;;;;;;7.15;3.05;;;23.40;63.80;;;;;;6220739;28;20443;-82
2022/09/04 07:50:04;;;;;;;6.57;2.40;;;23.40;63.60;;;;;;6208271;28;20129;-83
2022/09/04 07:53:24;;;;;;;6.25;2.83;;;23.50;63.30;;;;;;6236050;28;20465;-83
2022/09/04 07:56:48;;;;;;;4.63;3.08;;;23.60;63.10;;;;;;6261242;28;20094;-83
2022/09/04 07:59:52;;;;;;;10.90;3.65;;;23.70;62.90;;;;;;6268690;28;20127;-83
2022/09/04 08:03:02;;;;;;;5.38;3.10;;;23.80;62.40;;;;;;6268445;28;20025;-83
2022/09/04 08:06:13;;;;;;;7.88;3.33;;;23.90;62.40;;;;;;6259793;28;20082;-83
2022/09/04 08:09:49;;;;;;;7.95;3.80;;;24.00;61.90;;;;;;6257570;28;20523;-83
2022/09/04 08:13:12;;;;;;;5.80;3.47;;;24.10;61.50;;;;;;6281345;28;20055;-83
2022/09/04 08:16:47;;;;;;;5.55;3.25;;;24.30;60.80;;;;;;6267141;28;20121;-83
2022/09/04 08:20:11;;;;;;;8.00;3.10;;;24.30;60.40;;;;;;6281239;28;20523;-82
2022/09/04 08:23:33;;;;;;;5.10;2.22;;;24.50;60.30;;;;;;6250462;28;20115;-82
2022/09/04 08:26:46;;;;;;;4.45;2.65;;;24.60;59.70;;;;;;6286015;28;20300;-83
2022/09/04 08:29:52;;;;;;;5.47;2.25;;;24.70;59.30;;;;;;6285492;28;20068;-82
2022/09/04 08:33:11;;;;;;;4.93;1.80;;;24.80;59.20;;;;;;6263995;28;20441;-83
2022/09/04 08:36:12;;;;;;;2.72;2.13;;;24.90;58.90;;;;;;6258806;28;20037;-85
2022/09/04 08:39:36;;;;;;;3.53;1.95;;;24.90;58.60;;;;;;6271287;28;20048;-82
2022/09/04 08:43:02;;;;;;;3.90;1.95;;;24.90;58.50;;;;;;6251756;28;20051;-81
2022/09/04 08:46:47;;;;;;;5.70;2.05;;;24.90;58.50;;;;;;6274462;28;20041;-83
2022/09/04 08:50:12;;;;;;;3.72;1.80;;;25.10;58.50;;;;;;6204171;28;20120;-81
2022/09/04 08:53:17;;;;;;;4.15;1.65;;;25.20;57.70;;;;;;6251921;28;20041;-81
2022/09/04 08:56:41;;;;;;;10.85;2.35;;;25.30;57.40;;;;;;6214866;28;20045;-83
2022/09/04 08:59:50;;;;;;;5.43;1.67;;;25.50;57.30;;;;;;6243581;28;20060;-82
2022/09/04 09:02:57;;;;;;;4.15;1.85;;;25.60;56.30;;;;;;6229460;28;20042;-85
2022/09/04 09:06:45;;;;;;;5.22;2.85;;;25.70;55.80;;;;;;6207023;28;20594;-84
2022/09/04 09:10:05;;;;;;;3.80;2.33;;;25.80;55.60;;;;;;6129679;28;20177;-82
2022/09/04 09:13:47;;;;;;;5.25;2.10;;;25.90;55.60;;;;;;6157017;28;20137;-82
2022/09/04 09:17:11;;;;;;;3.20;1.90;;;26.00;54.90;;;;;;6156967;28;20129;-82
2022/09/04 09:20:44;;;;;;;3.58;2.40;;;26.10;54.30;;;;;;6087822;29;20483;-82
2022/09/04 09:24:19;;;;;;;3.03;1.83;;;26.10;54.10;;;;;;6087766;29;20047;-82
2022/09/04 09:27:55;;;;;;;6.10;1.90;;;26.10;53.70;;;;;;6080363;29;20076;-82
2022/09/04 09:31:37;;;;;;;3.97;1.85;;;26.10;54.00;;;;;;6055235;29;20044;-82
2022/09/04 09:34:37;;;;;;;8.75;2.15;;;26.20;53.50;;;;;;6057871;29;20385;-82
2022/09/04 09:38:14;;;;;;;4.85;2.05;;;26.30;53.30;;;;;;6062046;29;20052;-82
2022/09/04 09:41:33;;;;;;;2.40;1.70;;;26.30;53.30;;;;;;6076851;29;20910;-84
2022/09/04 09:44:38;;;;;;;4.75;1.58;;;26.40;53.20;;;;;;6109070;29;20043;-83
2022/09/04 09:47:45;;;;;;;7.40;1.73;;;26.50;52.90;;;;;;6105183;29;20138;-83
2022/09/04 09:51:16;;;;;;;1.52;1.30;;;26.60;52.70;;;;;;6092364;29;20044;-84
2022/09/04 09:54:37;;;;;;;2.17;1.50;;;26.70;52.30;;;;;;6129698;28;20039;-83
2022/09/04 09:58:22;;;;;;;4.30;1.42;;;26.80;52.30;;;;;;6161709;28;20050;-84
2022/09/04 10:01:38;;;;;;;5.90;1.35;;;26.80;52.30;;;;;;6191045;28;20073;-84
2022/09/04 10:04:53;;;;;;;2.80;1.42;;;26.90;52.10;;;;;;6179001;28;20045;-84
2022/09/04 10:08:26;;;;;;;3.20;1.50;;;27.00;51.90;;;;;;6231428;28;20072;-84
2022/09/04 10:11:42;;;;;;;3.03;1.83;;;27.00;51.90;;;;;;6289277;28;20033;-85
2022/09/04 10:15:08;;;;;;;1.95;1.40;;;27.10;51.60;;;;;;6274852;28;20365;-85
2022/09/04 10:18:21;;;;;;;2.45;1.50;;;27.10;51.10;;;;;;6255824;28;20405;-85
2022/09/04 10:21:31;;;;;;;4.10;1.40;;;27.20;50.90;;;;;;6270935;28;20045;-81
2022/09/04 10:25:20;;;;;;;2.30;1.63;;;27.20;50.70;;;;;;6301467;28;20036;-82
2022/09/04 10:28:48;;;;;;;1.40;1.20;;;27.20;50.40;;;;;;6244849;28;20053;-82
2022/09/04 10:32:12;;;;;;;4.05;2.05;;;27.30;50.00;;;;;;6250818;28;20094;-81
2022/09/04 10:35:15;;;;;;;4.22;1.60;;;27.40;49.70;;;;;;6275582;28;20045;-81
2022/09/04 10:38:26;;;;;;;2.22;1.38;;;27.60;49.60;;;;;;6273752;28;20736;-81
2022/09/04 10:42:02;;;;;;;2.92;1.25;;;27.70;49.20;;;;;;6245774;28;20025;-81
2022/09/04 10:45:19;;;;;;;5.10;1.30;;;28.00;48.40;;;;;;6275416;28;20029;-81
2022/09/04 10:48:38;;;;;;;4.57;1.40;;;28.30;47.50;;;;;;6262708;28;20051;-80
2022/09/04 10:52:16;;;;;;;1.30;1.20;;;28.60;47.20;;;;;;6293083;28;20082;-80
2022/09/04 10:55:29;;;;;;;2.13;1.10;;;29.00;46.30;;;;;;6261396;28;20041;-81
2022/09/04 10:58:33;;;;;;;1.40;1.15;;;29.20;45.00;;;;;;6270992;28;20430;-81
2022/09/04 11:01:39;;;;;;;3.25;2.13;;;29.40;44.30;;;;;;6278380;28;20036;-81
2022/09/04 11:04:47;;;;;;;2.95;1.40;;;29.60;43.70;;;;;;6255751;28;20037;-81
2022/09/04 11:07:55;;;;;;;2.03;1.13;;;29.90;44.50;;;;;;6267603;28;20123;-81
2022/09/04 11:11:20;;;;;;;1.48;1.20;;;30.30;43.50;;;;;;6267478;28;20041;-81
2022/09/04 11:14:39;;;;;;;2.35;1.30;;;30.60;42.60;;;;;;6270149;28;20069;-81
2022/09/04 11:18:06;;;;;;;4.20;1.40;;;30.90;42.10;;;;;;6256145;28;20124;-80
2022/09/04 11:21:22;;;;;;;4.68;2.88;;;31.20;41.80;;;;;;6252517;28;20044;-81
2022/09/04 11:25:03;;;;;;;1.70;1.42;;;31.40;41.30;;;;;;6261905;28;20046;-82
2022/09/04 11:28:43;;;;;;;1.20;1.08;;;31.60;41.00;;;;;;6286298;28;20032;-81
2022/09/04 11:31:54;;;;;;;1.50;1.23;;;31.70;41.10;;;;;;6257876;28;20033;-84
2022/09/04 11:35:08;;;;;;;2.78;1.25;;;31.90;40.40;;;;;;6252647;28;20038;-83
2022/09/04 11:38:42;;;;;;;5.95;1.75;;;32.00;40.40;;;;;;6250971;28;20426;-83
2022/09/04 11:42:19;;;;;;;3.47;1.58;;;32.20;40.10;;;;;;6250726;28;20514;-84
2022/09/04 11:45:40;;;;;;;2.22;1.17;;;32.50;39.70;;;;;;6265915;28;20063;-82
2022/09/04 11:49:06;;;;;;;3.85;1.13;;;32.70;39.30;;;;;;6263290;28;20446;-74
2022/09/04 11:52:15;;;;;;;3.80;1.20;;;32.90;39.00;;;;;;6279677;28;20391;-82
2022/09/04 11:56:17;;;;;;;3.78;1.70;;;33.10;38.60;;;;;;6287416;28;20046;-82
2022/09/04 11:59:44;;;;;;;4.30;1.40;;;33.40;38.40;;;;;;6257852;28;20339;-82
2022/09/04 12:03:12;;;;;;;1.85;1.35;;;33.90;37.80;;;;;;6175175;28;20121;-81
2022/09/04 12:06:37;;;;;;;1.13;1.00;;;34.30;36.80;;;;;;6186818;28;20054;-82
2022/09/04 12:10:18;;;;;;;1.52;1.40;;;34.70;36.20;;;;;;6189495;28;20460;-82
2022/09/04 12:13:51;;;;;;;2.13;1.00;;;35.10;35.40;;;;;;6183451;28;20046;-82
2022/09/04 12:16:55;;;;;;;2.17;1.30;;;35.50;34.50;;;;;;6160555;28;20477;-82
2022/09/04 12:20:06;;;;;;;3.20;1.42;;;35.90;33.90;;;;;;6186364;28;20050;-81
2022/09/04 12:23:30;;;;;;;3.83;1.23;;;36.40;33.40;;;;;;6168470;28;20045;-81
2022/09/04 12:27:06;;;;;;;5.18;1.23;;;36.90;32.40;;;;;;6166086;28;20415;-82
2022/09/04 12:30:17;;;;;;;3.30;1.20;;;37.30;31.60;;;;;;6150400;28;20418;-82
2022/09/04 12:33:27;;;;;;;2.80;1.20;;;37.80;30.80;;;;;;6179895;28;20038;-82
2022/09/04 12:41:17;;;;;;;2.67;1.08;;;39.00;29.70;;;;;;6210802;28;20041;-83
2022/09/04 12:44:38;;;;;;;3.88;1.30;;;39.80;28.90;;;;;;6204597;28;20044;-82
2022/09/04 12:48:10;;;;;;;2.85;0.95;;;40.40;28.20;;;;;;6213704;28;20033;-83
2022/09/04 12:51:23;;;;;;;6.22;1.10;;;40.60;27.70;;;;;;6222918;28;20049;-82
2022/09/04 12:54:50;;;;;;;3.15;1.50;;;40.30;27.80;;;;;;6204243;28;20057;-82
2022/09/04 12:58:12;;;;;;;4.70;1.02;;;39.60;28.30;;;;;;6211512;28;20045;-83
2022/09/04 13:01:38;;;;;;;2.45;1.20;;;39.20;28.80;;;;;;6232224;28;20097;-86
2022/09/04 13:04:57;;;;;;;2.15;1.40;;;39.50;28.70;;;;;;6243775;28;20033;-84
2022/09/04 13:08:13;;;;;;;1.17;1.00;;;40.60;27.70;;;;;;6222467;28;20092;-84
2022/09/04 13:11:19;;;;;;;2.08;1.30;;;41.60;26.80;;;;;;6193423;28;20079;-77
2022/09/04 13:14:44;;;;;;;6.57;1.10;;;42.50;25.40;;;;;;6230970;28;20085;-77
2022/09/04 13:17:58;;;;;;;0.90;0.90;;;42.90;24.70;;;;;;6237128;28;20037;-77
2022/09/04 13:21:17;;;;;;;1.88;1.10;;;43.50;24.20;;;;;;6266241;28;20127;-77
2022/09/04 13:24:18;;;;;;;3.83;1.00;;;43.70;23.20;;;;;;6250757;28;20095;-77
2022/09/04 13:27:27;;;;;;;1.85;1.00;;;44.00;23.00;;;;;;6259966;28;20441;-77
2022/09/04 13:30:30;;;;;;;0.90;0.80;;;44.30;22.70;;;;;;6244926;28;20041;-77
2022/09/04 13:34:00;;;;;;;2.67;1.00;;;44.50;22.00;;;;;;6270679;28;20045;-77
2022/09/04 13:37:09;;;;;;;2.80;1.20;;;44.70;21.40;;;;;;6223641;28;20473;-76
2022/09/04 13:40:36;;;;;;;1.30;1.00;;;44.30;21.30;;;;;;6267434;28;20042;-77
2022/09/04 13:43:59;;;;;;;2.50;1.08;;;44.10;21.30;;;;;;6251555;28;20463;-77
2022/09/04 13:47:24;;;;;;;2.67;1.05;;;44.00;21.50;;;;;;6253985;28;20045;-78
2022/09/04 13:50:55;;;;;;;1.55;1.05;;;44.10;21.40;;;;;;6264047;28;20051;-78
2022/09/04 13:54:05;;;;;;;1.58;1.00;;;44.50;21.20;;;;;;6258473;28;20224;-77
2022/09/04 13:57:24;;;;;;;2.30;1.02;;;44.60;20.80;;;;;;6269191;28;20044;-77
2022/09/04 14:00:29;;;;;;;1.10;1.00;;;44.00;21.30;;;;;;6267379;28;20032;-77
2022/09/04 14:03:32;;;;;;;1.73;1.10;;;43.00;22.10;;;;;;6267506;28;20343;-77
2022/09/04 14:06:35;;;;;;;2.63;1.15;;;41.70;23.00;;;;;;6263291;28;20029;-77
2022/09/04 14:09:42;;;;;;;1.55;1.30;;;40.60;24.00;;;;;;6267777;28;20033;-78
2022/09/04 14:12:48;;;;;;;1.55;0.88;;;39.80;24.80;;;;;;6262755;28;20037;-78
2022/09/04 14:15:57;;;;;;;1.60;1.10;;;38.80;25.60;;;;;;6271892;28;20419;-78
2022/09/04 14:19:35;;;;;;;2.10;0.90;;;38.00;26.40;;;;;;6237397;28;20557;-77
2022/09/04 14:22:44;;;;;;;4.88;1.15;;;37.20;27.30;;;;;;6250375;28;20056;-77
2022/09/04 14:26:14;;;;;;;2.40;1.13;;;36.50;27.90;;;;;;6252541;28;20181;-77
2022/09/04 14:29:52;;;;;;;0.82;0.80;;;36.10;28.40;;;;;;6168159;28;20100;-77
2022/09/04 14:33:12;;;;;;;2.55;1.42;;;35.70;28.70;;;;;;6155446;28;20155;-79
2022/09/04 14:36:55;;;;;;;1.70;1.45;;;35.30;28.90;;;;;;6160551;28;20042;-78
2022/09/04 14:40:14;;;;;;;4.47;1.40;;;35.10;29.20;;;;;;6147141;28;20530;-78
2022/09/04 14:43:31;;;;;;;2.97;0.98;;;34.90;29.40;;;;;;6172568;28;20069;-78
2022/09/04 14:46:50;;;;;;;3.00;1.03;;;34.70;29.60;;;;;;6161910;28;20126;-79
2022/09/04 14:49:56;;;;;;;4.15;1.20;;;34.50;29.60;;;;;;6176383;28;20151;-78
2022/09/04 14:53:02;;;;;;;2.88;1.00;;;34.30;29.70;;;;;;6159107;28;20031;-79
2022/09/04 14:56:09;;;;;;;3.10;1.13;;;34.20;29.90;;;;;;6170756;28;20141;-78
2022/09/04 14:59:36;;;;;;;4.20;1.20;;;34.00;30.00;;;;;;6163964;28;20089;-78
2022/09/04 15:03:17;;;;;;;1.48;1.08;;;33.90;30.30;;;;;;6186559;28;20048;-78
2022/09/04 15:06:44;;;;;;;2.53;1.17;;;33.80;30.40;;;;;;6214222;28;20041;-79
2022/09/04 15:09:48;;;;;;;8.57;1.15;;;33.70;30.70;;;;;;6283250;28;20079;-77
2022/09/04 15:13:04;;;;;;;2.50;1.15;;;33.50;30.80;;;;;;6277498;28;20040;-77
2022/09/04 15:16:34;;;;;;;2.42;1.10;;;33.40;31.10;;;;;;6285307;28;20040;-77
2022/09/04 15:19:39;;;;;;;2.20;1.23;;;33.30;31.30;;;;;;6269504;28;20044;-77
2022/09/04 15:22:59;;;;;;;4.13;1.02;;;33.20;31.50;;;;;;6286563;28;20036;-77
2022/09/04 15:26:04;;;;;;;2.00;1.23;;;33.10;31.70;;;;;;6273488;28;20037;-77
2022/09/04 15:29:37;;;;;;;2.25;1.25;;;33.10;31.90;;;;;;6286608;28;20393;-77
2022/09/04 15:32:41;;;;;;;2.53;1.17;;;33.00;32.10;;;;;;6192362;28;20371;-78
2022/09/04 15:35:43;;;;;;;2.83;1.20;;;32.90;32.20;;;;;;6176571;28;20093;-79
2022/09/04 15:38:59;;;;;;;4.15;1.20;;;32.90;32.40;;;;;;6178152;28;20053;-78
2022/09/04 15:42:00;;;;;;;2.33;1.25;;;32.90;32.60;;;;;;6178447;28;20090;-78
2022/09/04 15:45:14;;;;;;;1.10;1.00;;;32.80;32.80;;;;;;6174409;28;20102;-78
2022/09/04 15:48:28;;;;;;;1.85;1.33;;;32.80;33.00;;;;;;6170456;28;20455;-78
2022/09/04 15:51:45;;;;;;;3.35;1.25;;;32.70;32.90;;;;;;6185504;28;20476;-77
2022/09/04 15:54:51;;;;;;;1.60;1.17;;;32.70;32.90;;;;;;6190581;28;20547;-77
2022/09/04 15:58:12;;;;;;;6.53;3.00;;;32.70;32.80;;;;;;6155548;28;20565;-77
2022/09/04 16:01:23;;;;;;;2.45;1.38;;;32.70;32.80;;;;;;6173821;28;20039;-77
2022/09/04 16:04:45;;;;;;;3.25;1.00;;;32.80;32.80;;;;;;6177479;28;20054;-78
2022/09/04 16:08:22;;;;;;;2.03;1.00;;;33.60;32.10;;;;;;6167906;28;20032;-79
2022/09/04 16:11:41;;;;;;;2.97;0.98;;;35.00;30.10;;;;;;6210551;28;20042;-78
2022/09/04 16:14:54;;;;;;;1.42;1.10;;;36.80;28.30;;;;;;6214124;28;20034;-78
2022/09/04 16:18:01;;;;;;;2.13;1.13;;;38.30;26.90;;;;;;6203836;28;20421;-78
2022/09/04 16:21:11;;;;;;;1.98;1.15;;;39.30;25.80;;;;;;6207306;28;20131;-79
2022/09/04 16:24:20;;;;;;;2.60;0.98;;;40.20;25.00;;;;;;6214707;28;20148;-78
2022/09/04 16:27:25;;;;;;;2.65;1.00;;;41.00;24.30;;;;;;6203182;28;20108;-78
2022/09/04 16:30:37;;;;;;;2.85;1.08;;;41.60;23.80;;;;;;6211458;28;20026;-79
2022/09/04 16:33:49;;;;;;;1.35;0.90;;;42.00;23.00;;;;;;6194638;28;20061;-79
2022/09/04 16:37:14;;;;;;;4.65;1.13;;;42.00;22.80;;;;;;6197917;28;20622;-78
2022/09/04 16:40:32;;;;;;;6.80;1.27;;;41.30;23.10;;;;;;6194859;28;20041;-78
2022/09/04 16:43:34;;;;;;;4.25;1.30;;;40.00;23.50;;;;;;6211571;28;20044;-78
2022/09/04 16:46:38;;;;;;;1.08;0.98;;;38.80;24.40;;;;;;6232741;28;20055;-78
2022/09/04 16:50:01;;;;;;;2.17;1.20;;;37.70;25.40;;;;;;6259806;28;20044;-78
2022/09/04 16:53:12;;;;;;;2.50;1.17;;;36.70;26.50;;;;;;6262049;28;20037;-78
2022/09/04 16:56:49;;;;;;;1.83;1.13;;;36.00;27.30;;;;;;6250947;28;20493;-79
2022/09/04 16:59:59;;;;;;;1.52;1.02;;;35.40;28.00;;;;;;6266991;28;20036;-78
2022/09/04 17:03:16;;;;;;;2.40;1.23;;;34.80;28.60;;;;;;6278320;28;20037;-78
2022/09/04 17:06:26;;;;;;;1.65;1.02;;;34.40;29.10;;;;;;6262985;28;20044;-78
2022/09/04 17:09:37;;;;;;;2.85;1.17;;;34.00;29.50;;;;;;6275643;28;20406;-78
2022/09/04 17:12:58;;;;;;;3.38;1.17;;;33.60;29.80;;;;;;6265971;28;20077;-79
2022/09/04 17:16:10;;;;;;;2.20;1.30;;;33.30;30.30;;;;;;6284862;28;20372;-78
2022/09/04 17:19:14;;;;;;;3.58;1.08;;;33.00;30.60;;;;;;6286275;28;20116;-77
2022/09/04 17:22:36;;;;;;;5.57;1.38;;;32.70;30.90;;;;;;6289975;28;20121;-77
2022/09/04 17:25:58;;;;;;;2.90;1.20;;;32.40;31.30;;;;;;6254112;28;20051;-78